Time;durP1;ratioP1;P1;durP2;ratioP2;P2;SDS_P1;SDS_P2;PMS_P1;PMS_P2;Temp;Humidity;BMP_temperature;BMP_pressure;BME280_temperature;BME280_humidity;BME280_pressure;Samples;Min_cycle;Max_cycle;Signal;HPM_P1;HPM_P2
2022/10/08 00:01:37;;;;;;;16.67;14.87;;;;;;;14.95;100.00;98406.13;4154141;28;20632;-84
2022/10/08 00:03:43;;;;;;;17.43;15.30;;;;;;;14.95;100.00;98399.06;4182909;28;21050;-84
2022/10/08 00:05:55;;;;;;;17.00;14.33;;;;;;;14.95;100.00;98409.59;4149515;28;20647;-83
2022/10/08 00:07:58;;;;;;;20.70;14.63;;;;;;;14.96;100.00;98394.66;4163178;28;20761;-84
2022/10/08 00:10:05;;;;;;;17.53;15.33;;;;;;;14.97;100.00;98401.59;4166508;28;20747;-84
2022/10/08 00:12:08;;;;;;;20.23;15.80;;;;;;;14.95;100.00;98403.50;4170930;28;20823;-84
2022/10/08 00:14:12;;;;;;;17.70;14.50;;;;;;;14.96;100.00;98400.75;4162646;28;20673;-83
2022/10/08 00:16:17;;;;;;;16.20;14.50;;;;;;;14.96;100.00;98400.75;4153690;28;20654;-84
2022/10/08 00:18:20;;;;;;;17.77;15.87;;;;;;;14.96;100.00;98407.78;4151902;28;21195;-83
2022/10/08 00:20:23;;;;;;;20.00;17.07;;;;;;;14.96;100.00;98406.00;4160808;28;20663;-83
2022/10/08 00:22:26;;;;;;;17.53;15.20;;;;;;;14.97;100.00;98409.47;4152534;28;20640;-84
2022/10/08 00:24:30;;;;;;;19.60;15.20;;;;;;;14.96;100.00;98403.38;4150870;28;20686;-84
2022/10/08 00:26:35;;;;;;;16.93;15.13;;;;;;;14.97;100.00;98402.41;4161871;28;20722;-84
2022/10/08 00:28:46;;;;;;;18.27;15.50;;;;;;;14.97;100.00;98402.41;4161501;28;20687;-83
2022/10/08 00:30:51;;;;;;;22.43;15.83;;;;;;;14.97;100.00;98406.84;4150936;28;20641;-84
2022/10/08 00:32:55;;;;;;;16.20;14.40;;;;;;;14.96;100.00;98406.00;4161858;28;20649;-84
2022/10/08 00:35:01;;;;;;;18.17;15.23;;;;;;;14.96;100.00;98415.66;4163316;28;20643;-83
2022/10/08 00:37:04;;;;;;;18.67;16.07;;;;;;;14.95;100.00;98414.84;4167120;28;20644;-84
2022/10/08 00:39:10;;;;;;;17.63;15.50;;;;;;;14.96;100.00;98415.66;4163498;28;20682;-83
2022/10/08 00:41:19;;;;;;;18.27;14.60;;;;;;;14.97;100.00;98417.34;4168002;28;20692;-83
2022/10/08 00:43:39;;;;;;;18.70;16.30;;;;;;;14.97;100.00;98412.91;4161974;28;20744;-84
2022/10/08 00:45:43;;;;;;;19.00;14.67;;;;;;;14.97;100.00;98410.28;4163416;28;20705;-84
2022/10/08 00:47:48;;;;;;;17.30;14.40;;;;;;;14.98;100.00;98408.50;4162110;28;20712;-83
2022/10/08 00:49:53;;;;;;;19.60;15.83;;;;;;;14.98;100.00;98414.59;4149397;28;21180;-84
2022/10/08 00:51:57;;;;;;;15.83;14.13;;;;;;;14.98;100.00;98404.09;4173723;28;20693;-83
2022/10/08 00:54:01;;;;;;;16.80;14.80;;;;;;;14.98;100.00;98398.00;4164859;28;21191;-84
2022/10/08 00:56:04;;;;;;;17.13;14.87;;;;;;;14.95;100.00;98399.06;4163364;28;20640;-84
2022/10/08 00:58:11;;;;;;;17.70;15.13;;;;;;;14.92;100.00;98401.94;4177426;28;20665;-84
2022/10/08 01:00:17;;;;;;;15.40;13.67;;;;;;;14.89;100.00;98399.56;4164960;28;20643;-83
2022/10/08 01:07:52;;;;;;;16.43;14.50;;;;;;;14.75;100.00;98388.53;4123192;28;20679;-92
2022/10/08 01:09:59;;;;;;;15.50;13.50;;;;;;;14.74;100.00;98390.28;4126880;28;20623;-92
2022/10/08 01:12:09;;;;;;;19.80;14.37;;;;;;;14.72;100.00;98394.84;4110591;28;21065;-92
2022/10/08 01:14:24;;;;;;;17.10;13.80;;;;;;;14.69;100.00;98384.59;4119221;28;20763;-92
2022/10/08 01:16:31;;;;;;;17.00;14.43;;;;;;;14.67;99.89;98389.13;4107649;28;20660;-92
2022/10/08 01:18:41;;;;;;;21.43;14.23;;;;;;;14.65;99.89;98385.78;4123458;28;20646;-92
2022/10/08 01:20:51;;;;;;;18.60;14.07;;;;;;;14.64;100.00;98384.13;4109811;28;20728;-92
2022/10/08 01:23:07;;;;;;;15.70;14.03;;;;;;;14.63;100.00;98387.69;4095634;28;20674;-92
2022/10/08 01:25:32;;;;;;;19.20;13.50;;;;;;;14.59;100.00;98383.63;4109919;28;20737;-92
2022/10/08 01:27:41;;;;;;;17.40;14.13;;;;;;;14.57;99.55;98387.38;4124029;28;21184;-92
2022/10/08 01:29:46;;;;;;;15.70;13.83;;;;;;;14.54;100.00;98382.34;4111137;28;20680;-92
2022/10/08 01:31:52;;;;;;;15.50;13.00;;;;;;;14.52;99.74;98378.16;4127114;28;20699;-92
2022/10/08 01:33:59;;;;;;;15.57;14.00;;;;;;;14.49;99.71;98379.22;4110850;28;21256;-92
2022/10/08 01:36:04;;;;;;;15.13;13.63;;;;;;;14.49;100.00;98376.63;4110600;28;20692;-92
2022/10/08 01:38:07;;;;;;;15.80;14.10;;;;;;;14.47;100.00;98383.78;4092179;28;20678;-92
2022/10/08 01:40:15;;;;;;;18.00;14.03;;;;;;;14.46;100.00;98384.72;4112962;28;21088;-92
2022/10/08 01:42:22;;;;;;;20.10;13.70;;;;;;;14.44;99.27;98381.41;4112142;28;20644;-92
2022/10/08 01:44:28;;;;;;;14.90;13.40;;;;;;;14.44;100.00;98385.81;4090972;28;20770;-92
2022/10/08 01:46:31;;;;;;;16.53;14.60;;;;;;;14.45;99.58;98379.59;4096677;28;20668;-91
2022/10/08 01:48:38;;;;;;;16.97;15.17;;;;;;;14.45;100.00;98383.09;4127863;28;20693;-92
2022/10/08 01:50:46;;;;;;;18.23;13.77;;;;;;;14.45;100.00;98371.72;4106382;28;21215;-92
2022/10/08 01:52:53;;;;;;;17.20;14.57;;;;;;;14.48;100.00;98376.72;4094044;28;20673;-91
2022/10/08 01:54:58;;;;;;;16.27;14.57;;;;;;;14.46;100.00;98381.28;4106312;28;20736;-92
2022/10/08 01:57:04;;;;;;;18.40;14.80;;;;;;;14.45;100.00;98376.97;4127362;28;20616;-92
2022/10/08 01:59:11;;;;;;;18.40;14.63;;;;;;;14.45;100.00;98371.72;4110562;28;20730;-92
2022/10/08 02:01:21;;;;;;;18.63;14.07;;;;;;;14.46;100.00;98362.91;4096715;28;20706;-91
2022/10/08 02:03:24;;;;;;;17.70;14.73;;;;;;;14.47;100.00;98372.47;4127633;28;20711;-91
2022/10/08 02:05:28;;;;;;;15.93;13.40;;;;;;;14.45;100.00;98366.47;4112610;28;21294;-92
2022/10/08 02:07:33;;;;;;;15.77;13.90;;;;;;;14.47;100.00;98368.03;4104530;28;20686;-92
2022/10/08 02:09:38;;;;;;;15.57;13.70;;;;;;;14.47;100.00;98365.41;4105559;28;20672;-92
2022/10/08 02:11:41;;;;;;;17.00;14.87;;;;;;;14.46;100.00;98370.78;4122736;28;20656;-92
2022/10/08 02:13:45;;;;;;;17.57;14.70;;;;;;;14.45;100.00;98379.59;4123214;28;20642;-92
2022/10/08 02:15:53;;;;;;;16.10;13.93;;;;;;;14.46;100.00;98379.47;4092213;28;20631;-92
2022/10/08 02:18:05;;;;;;;15.80;13.57;;;;;;;14.46;100.00;98368.16;4123808;28;20646;-92
2022/10/08 02:20:15;;;;;;;15.90;13.97;;;;;;;14.42;100.00;98366.75;4091931;28;20637;-92
2022/10/08 02:22:22;;;;;;;20.67;13.80;;;;;;;14.35;100.00;98365.56;4106267;28;21048;-92
2022/10/08 02:24:30;;;;;;;14.27;12.70;;;;;;;14.28;100.00;98364.34;4091608;28;20643;-92
2022/10/08 02:26:35;;;;;;;14.73;12.80;;;;;;;14.27;99.74;98378.44;4104605;28;20696;-92
2022/10/08 02:28:44;;;;;;;15.03;13.43;;;;;;;14.28;100.00;98372.22;4103773;28;20625;-91
2022/10/08 02:30:51;;;;;;;18.63;13.70;;;;;;;14.30;99.75;98370.34;4107419;28;20725;-92
2022/10/08 02:33:00;;;;;;;15.50;13.60;;;;;;;14.29;100.00;98373.91;4091356;28;20764;-92
2022/10/08 02:35:07;;;;;;;15.53;13.83;;;;;;;14.27;100.00;98368.78;4096881;28;20647;-91
2022/10/08 02:37:12;;;;;;;14.60;13.10;;;;;;;14.27;100.00;98371.41;4120780;28;21191;-92
2022/10/08 02:39:16;;;;;;;16.77;13.23;;;;;;;14.28;100.00;98370.47;4093091;28;20730;-92
2022/10/08 02:41:21;;;;;;;16.30;14.33;;;;;;;14.30;100.00;98362.47;4094396;28;21080;-92
2022/10/08 02:43:27;;;;;;;15.80;13.20;;;;;;;14.31;100.00;98364.97;4095479;28;20680;-92
2022/10/08 02:45:32;;;;;;;15.33;13.37;;;;;;;14.31;100.00;98364.13;4096944;28;20646;-91
2022/10/08 02:47:37;;;;;;;15.80;14.30;;;;;;;14.31;100.00;98366.75;4122609;28;20644;-91
2022/10/08 02:49:43;;;;;;;15.23;13.50;;;;;;;14.30;100.00;98371.16;4123996;28;20661;-91
2022/10/08 02:51:48;;;;;;;14.57;12.50;;;;;;;14.30;100.00;98372.97;4111135;28;20644;-92
2022/10/08 02:53:51;;;;;;;17.27;13.67;;;;;;;14.32;100.00;98368.41;4107884;28;20645;-92
2022/10/08 02:56:07;;;;;;;17.70;13.60;;;;;;;14.33;100.00;98372.72;4109474;28;21260;-91
2022/10/08 02:58:11;;;;;;;15.07;13.47;;;;;;;14.34;100.00;98369.13;4123916;28;20637;-92
2022/10/08 03:00:14;;;;;;;15.00;13.40;;;;;;;14.34;100.00;98379.63;4109033;28;20682;-92
2022/10/08 03:02:20;;;;;;;17.70;14.17;;;;;;;14.36;100.00;98375.94;4105233;28;20998;-92
2022/10/08 03:04:26;;;;;;;16.30;14.00;;;;;;;14.36;100.00;98372.47;4110236;28;20650;-93
2022/10/08 03:06:31;;;;;;;16.30;14.50;;;;;;;14.39;100.00;98361.75;4104110;28;21293;-92
2022/10/08 03:08:36;;;;;;;15.77;14.17;;;;;;;14.37;100.00;98364.50;4091686;28;20639;-92
2022/10/08 03:10:40;;;;;;;15.97;14.20;;;;;;;14.36;100.00;98372.47;4106165;28;21396;-92
2022/10/08 03:12:43;;;;;;;14.90;13.30;;;;;;;14.37;100.00;98380.22;4088435;28;20739;-92
2022/10/08 03:14:49;;;;;;;15.50;13.90;;;;;;;14.38;100.00;98383.69;4106005;28;21030;-92
2022/10/08 03:16:52;;;;;;;15.60;14.00;;;;;;;14.41;100.00;98378.19;4107383;28;21291;-92
2022/10/08 03:18:58;;;;;;;17.20;13.80;;;;;;;14.44;100.00;98383.19;4107541;28;21115;-92
2022/10/08 03:21:01;;;;;;;19.90;14.37;;;;;;;14.46;100.00;98373.41;4108169;28;20669;-91
2022/10/08 03:23:05;;;;;;;15.33;13.43;;;;;;;14.47;100.00;98388.22;4105990;28;20669;-91
2022/10/08 03:25:08;;;;;;;14.90;13.40;;;;;;;14.50;100.00;98380.09;4121114;28;21205;-92
2022/10/08 03:27:11;;;;;;;15.90;13.53;;;;;;;14.51;100.00;98393.09;4105836;28;20635;-92
2022/10/08 03:29:14;;;;;;;17.73;13.70;;;;;;;14.51;100.00;98387.84;4107793;28;21263;-92
2022/10/08 03:31:17;;;;;;;16.83;13.70;;;;;;;14.52;100.00;98399.16;4121883;28;21208;-92
2022/10/08 03:33:20;;;;;;;15.60;13.60;;;;;;;14.54;100.00;98399.88;4104027;28;20700;-92
2022/10/08 03:35:23;;;;;;;18.67;13.47;;;;;;;14.55;100.00;98398.94;4107675;28;20645;-92
2022/10/08 03:37:26;;;;;;;23.73;13.63;;;;;;;14.56;100.00;98401.44;4103335;28;21076;-92
2022/10/08 03:39:31;;;;;;;15.63;13.20;;;;;;;14.56;100.00;98411.09;4107412;28;20643;-92
2022/10/08 03:41:34;;;;;;;20.10;14.00;;;;;;;14.56;100.00;98413.72;4091776;28;20658;-92
2022/10/08 03:43:37;;;;;;;14.90;13.23;;;;;;;14.57;100.00;98413.63;4124254;28;20678;-91
2022/10/08 03:45:49;;;;;;;15.33;13.43;;;;;;;14.56;100.00;98405.84;4109399;28;20667;-92
2022/10/08 03:47:52;;;;;;;22.60;14.10;;;;;;;14.58;100.00;98414.44;4111547;28;21417;-93
2022/10/08 03:49:55;;;;;;;15.60;12.57;;;;;;;14.58;100.00;98415.25;4094114;28;20713;-92
2022/10/08 03:51:58;;;;;;;15.50;13.50;;;;;;;14.59;100.00;98411.69;4123821;28;20638;-91
2022/10/08 03:54:01;;;;;;;15.47;13.53;;;;;;;14.60;100.00;98418.63;4094344;28;20664;-92
2022/10/08 03:56:08;;;;;;;19.90;14.10;;;;;;;14.59;100.00;98417.75;4109330;28;20643;-91
2022/10/08 03:58:11;;;;;;;17.07;13.70;;;;;;;14.59;100.00;98422.19;4089060;28;21036;-92
2022/10/08 04:00:14;;;;;;;17.53;12.37;;;;;;;14.58;100.00;98419.69;4106475;28;20634;-91
2022/10/08 04:02:17;;;;;;;15.57;13.67;;;;;;;14.56;100.00;98422.44;4108061;28;20664;-92
2022/10/08 04:04:20;;;;;;;14.40;12.90;;;;;;;14.59;100.00;98424.81;4107763;28;20668;-92
2022/10/08 04:06:27;;;;;;;15.77;13.13;;;;;;;14.61;100.00;98433.41;4121190;28;20620;-91
2022/10/08 04:08:30;;;;;;;17.33;13.20;;;;;;;14.62;100.00;98438.53;4112882;28;20744;-92
2022/10/08 04:10:37;;;;;;;15.83;13.53;;;;;;;14.62;100.00;98435.91;4101674;28;20753;-92
2022/10/08 04:12:42;;;;;;;16.13;13.20;;;;;;;14.63;100.00;98434.97;4102566;28;20733;-92
2022/10/08 04:14:45;;;;;;;17.70;13.63;;;;;;;14.66;100.00;98439.97;4087318;28;20650;-92
2022/10/08 04:16:48;;;;;;;15.90;13.70;;;;;;;14.67;100.00;98439.03;4123219;28;20684;-93
2022/10/08 04:18:51;;;;;;;18.90;12.63;;;;;;;14.72;100.00;98438.66;4090023;28;20685;-92
2022/10/08 04:20:57;;;;;;;15.67;13.53;;;;;;;14.72;100.00;98439.47;4087190;28;20639;-92
2022/10/08 04:23:00;;;;;;;15.30;12.97;;;;;;;14.74;100.00;98434.09;4104754;28;21295;-93
2022/10/08 04:25:03;;;;;;;17.73;13.53;;;;;;;14.75;100.00;98436.63;4118916;28;20646;-92
2022/10/08 04:27:06;;;;;;;17.13;13.60;;;;;;;14.74;100.00;98436.72;4088297;28;20649;-92
2022/10/08 04:29:11;;;;;;;14.43;12.93;;;;;;;14.72;100.00;98433.41;4091161;28;20634;-92
2022/10/08 04:31:16;;;;;;;15.90;13.97;;;;;;;14.72;100.00;98439.47;4095197;28;20656;-92
2022/10/08 04:33:19;;;;;;;15.97;14.27;;;;;;;14.72;100.00;98444.72;4092506;28;20715;-92
2022/10/08 04:35:22;;;;;;;16.20;12.70;;;;;;;14.72;100.00;98433.41;4108084;28;20643;-92
2022/10/08 04:37:25;;;;;;;14.87;12.83;;;;;;;14.72;100.00;98439.47;4109365;28;20666;-91
2022/10/08 04:39:28;;;;;;;14.63;13.00;;;;;;;14.72;100.00;98444.72;4095291;28;20631;-91
2022/10/08 04:41:31;;;;;;;17.93;14.37;;;;;;;14.72;100.00;98439.47;4107269;28;20734;-92
2022/10/08 04:43:35;;;;;;;15.97;13.80;;;;;;;14.73;100.00;98440.31;4110232;28;21103;-92
2022/10/08 04:45:43;;;;;;;17.03;13.77;;;;;;;14.75;100.00;98449.75;4109093;28;20641;-92
2022/10/08 04:47:47;;;;;;;18.90;14.10;;;;;;;14.75;100.00;98447.13;4107467;28;20658;-92
2022/10/08 04:49:50;;;;;;;15.40;12.80;;;;;;;14.76;100.00;98450.56;4111807;28;20878;-91
2022/10/08 04:51:53;;;;;;;17.13;13.20;;;;;;;14.75;100.00;98455.00;4126449;28;20700;-92
2022/10/08 04:53:57;;;;;;;17.23;13.50;;;;;;;14.78;100.00;98452.13;4126792;28;21434;-92
2022/10/08 04:56:08;;;;;;;16.53;14.07;;;;;;;14.79;100.00;98455.56;4117034;28;20632;-92
2022/10/08 04:58:11;;;;;;;17.50;13.57;;;;;;;14.81;100.00;98461.56;4113373;28;20629;-92
2022/10/08 05:00:14;;;;;;;16.87;13.97;;;;;;;14.81;100.00;98456.31;4110585;28;20684;-91
2022/10/08 05:02:22;;;;;;;16.70;13.40;;;;;;;14.80;100.00;98462.50;4106217;28;20645;-91
2022/10/08 05:04:25;;;;;;;18.40;13.80;;;;;;;14.82;100.00;98464.03;4107290;28;20698;-91
2022/10/08 05:06:29;;;;;;;15.17;13.60;;;;;;;14.82;100.00;98463.22;4108917;28;20639;-92
2022/10/08 05:08:33;;;;;;;15.40;13.00;;;;;;;14.81;100.00;98465.00;4090780;28;20687;-91
2022/10/08 05:10:36;;;;;;;16.67;13.37;;;;;;;14.82;100.00;98465.84;4115315;28;20705;-92
2022/10/08 05:12:39;;;;;;;16.03;14.33;;;;;;;14.82;100.00;98464.03;4108895;28;20633;-91
2022/10/08 05:14:42;;;;;;;13.30;12.00;;;;;;;14.81;100.00;98465.00;4096444;28;20647;-93
2022/10/08 05:16:45;;;;;;;14.10;12.10;;;;;;;14.81;100.00;98465.00;4105973;28;21400;-91
2022/10/08 05:18:50;;;;;;;18.50;13.10;;;;;;;14.82;100.00;98465.84;4107314;28;20650;-92
2022/10/08 05:20:54;;;;;;;15.93;12.77;;;;;;;14.81;100.00;98472.91;4108950;28;20729;-91
2022/10/08 05:22:56;;;;;;;16.83;13.80;;;;;;;14.79;100.00;98469.56;4092974;28;20763;-92
2022/10/08 05:24:59;;;;;;;17.03;14.67;;;;;;;14.79;100.00;98477.44;4106041;28;20749;-92
2022/10/08 05:27:02;;;;;;;14.67;13.17;;;;;;;14.79;100.00;98480.06;4088156;28;20643;-92
2022/10/08 05:29:06;;;;;;;15.00;13.40;;;;;;;14.81;100.00;98482.56;4108983;28;20633;-92
2022/10/08 05:31:09;;;;;;;17.00;14.40;;;;;;;14.83;100.00;98478.03;4093770;28;20695;-92
2022/10/08 05:33:12;;;;;;;15.60;14.00;;;;;;;14.86;100.00;98475.16;4093162;28;20985;-92
2022/10/08 05:35:16;;;;;;;18.57;14.07;;;;;;;14.85;100.00;98476.94;4106050;28;20642;-92
2022/10/08 05:37:19;;;;;;;14.53;13.13;;;;;;;14.87;100.00;98475.03;4106975;28;20652;-92
2022/10/08 05:39:22;;;;;;;20.03;15.03;;;;;;;14.89;100.00;98478.38;4095485;28;20675;-92
2022/10/08 05:41:27;;;;;;;18.27;13.87;;;;;;;14.90;100.00;98485.31;4111249;28;21313;-92
2022/10/08 05:43:30;;;;;;;15.27;13.37;;;;;;;14.92;100.00;98496.50;4110118;28;21206;-91
2022/10/08 05:45:33;;;;;;;20.30;14.77;;;;;;;14.94;100.00;98491.13;4122161;28;20696;-92
2022/10/08 05:47:36;;;;;;;14.67;13.00;;;;;;;14.95;100.00;98493.63;4108889;28;20639;-92
2022/10/08 05:49:39;;;;;;;14.50;12.67;;;;;;;14.97;100.00;98490.91;4107529;28;20638;-92
2022/10/08 05:51:43;;;;;;;14.87;13.33;;;;;;;14.98;100.00;98497.81;4094004;28;21417;-92
2022/10/08 05:53:48;;;;;;;14.53;12.43;;;;;;;14.98;100.00;98498.66;4104938;28;20759;-91
2022/10/08 05:55:59;;;;;;;16.50;14.23;;;;;;;14.99;100.00;98497.72;4093898;28;21599;-92
2022/10/08 05:58:02;;;;;;;15.50;13.90;;;;;;;14.99;100.00;98500.34;4091517;28;20654;-92
2022/10/08 06:00:06;;;;;;;16.43;13.90;;;;;;;14.99;100.00;98504.72;4094544;28;20678;-92
2022/10/08 06:02:13;;;;;;;15.97;13.50;;;;;;;14.99;100.00;98495.09;4127928;28;21267;-91
2022/10/08 06:04:17;;;;;;;16.73;14.93;;;;;;;15.00;100.00;98499.34;4112100;28;20670;-92
2022/10/08 06:06:21;;;;;;;15.57;13.97;;;;;;;15.01;100.00;98503.66;4107658;28;20696;-92
2022/10/08 06:08:25;;;;;;;16.23;14.47;;;;;;;15.04;100.00;98498.16;4119832;28;20691;-92
2022/10/08 06:10:30;;;;;;;18.30;15.20;;;;;;;15.06;100.00;98498.03;4108849;28;20647;-92
2022/10/08 06:12:33;;;;;;;20.60;15.70;;;;;;;15.06;100.00;98501.50;4103280;28;20786;-91
2022/10/08 06:14:36;;;;;;;18.60;14.20;;;;;;;15.06;100.00;98505.94;4108133;28;20745;-91
2022/10/08 06:16:39;;;;;;;15.00;13.40;;;;;;;15.06;100.00;98517.25;4122625;28;21028;-91
2022/10/08 06:18:43;;;;;;;21.70;15.20;;;;;;;15.07;100.00;98527.66;4105549;28;20654;-92
2022/10/08 06:20:46;;;;;;;18.33;15.47;;;;;;;15.09;100.00;98528.38;4119760;28;22572;-91
2022/10/08 06:22:48;;;;;;;22.67;16.20;;;;;;;15.12;100.00;98528.16;4112272;28;20740;-91
2022/10/08 06:24:53;;;;;;;20.40;16.60;;;;;;;15.14;100.00;98531.47;4106861;28;20644;-91
2022/10/08 06:26:56;;;;;;;18.80;16.10;;;;;;;15.18;100.00;98538.19;4108039;28;21217;-92
2022/10/08 06:28:59;;;;;;;22.10;16.17;;;;;;;15.19;100.00;98533.78;4108993;28;20653;-92
2022/10/08 06:31:03;;;;;;;18.80;16.03;;;;;;;15.24;100.00;98539.47;4107658;28;20637;-92
2022/10/08 06:33:06;;;;;;;21.00;17.63;;;;;;;15.27;100.00;98536.63;4105695;28;20627;-91
2022/10/08 06:35:09;;;;;;;18.30;16.40;;;;;;;15.29;100.00;98532.06;4125773;28;20633;-92
2022/10/08 06:37:12;;;;;;;18.90;16.23;;;;;;;15.28;100.00;98536.50;4106495;28;20667;-95
2022/10/08 06:39:16;;;;;;;20.40;15.63;;;;;;;15.33;100.00;98536.13;4124450;28;20665;-88
2022/10/08 06:41:21;;;;;;;18.93;15.83;;;;;;;15.34;100.00;98541.25;4109140;28;21278;-89
2022/10/08 06:43:24;;;;;;;17.10;15.33;;;;;;;15.35;100.00;98544.72;4123871;28;20642;-88
2022/10/08 06:45:27;;;;;;;18.07;16.13;;;;;;;15.35;100.00;98540.31;4129123;28;20737;-88
2022/10/08 06:47:30;;;;;;;19.60;16.30;;;;;;;15.37;100.00;98543.63;4123544;28;20649;-88
2022/10/08 06:49:33;;;;;;;17.50;15.70;;;;;;;15.38;100.00;98540.06;4101513;28;20644;-88
2022/10/08 06:51:36;;;;;;;17.40;15.30;;;;;;;15.41;100.00;98549.47;4130462;28;20665;-89
2022/10/08 06:53:39;;;;;;;24.50;15.53;;;;;;;15.44;100.00;98557.13;4106009;28;20662;-89
2022/10/08 06:55:42;;;;;;;18.10;14.70;;;;;;;15.50;100.00;98560.13;4100021;28;20655;-89
2022/10/08 06:57:47;;;;;;;17.53;15.63;;;;;;;15.56;100.00;98567.50;4110202;28;20778;-90
2022/10/08 06:59:53;;;;;;;22.00;16.37;;;;;;;15.66;100.00;98566.63;4092936;28;20627;-88
2022/10/08 07:01:56;;;;;;;18.83;16.70;;;;;;;15.80;100.00;98566.34;4090761;28;20636;-88
2022/10/08 07:03:59;;;;;;;20.70;17.47;;;;;;;16.00;100.00;98565.56;4117159;28;20670;-88
2022/10/08 07:06:04;;;;;;;21.37;17.30;;;;;;;16.17;100.00;98568.44;4121037;28;20672;-88
2022/10/08 07:08:07;;;;;;;20.27;18.00;;;;;;;16.34;100.00;98574.97;4123825;28;20648;-88
2022/10/08 07:10:11;;;;;;;23.57;17.60;;;;;;;16.43;99.95;98579.47;4124914;28;20633;-89
2022/10/08 07:12:14;;;;;;;19.67;17.33;;;;;;;16.36;100.00;98567.81;4106244;28;20675;-88
2022/10/08 07:14:18;;;;;;;21.80;17.37;;;;;;;16.33;100.00;98579.41;4119794;28;21269;-88
2022/10/08 07:16:23;;;;;;;20.10;16.90;;;;;;;16.31;100.00;98583.97;4118696;28;20655;-90
2022/10/08 07:18:26;;;;;;;19.77;16.43;;;;;;;16.30;100.00;98579.66;4099178;28;20632;-91
2022/10/08 07:20:29;;;;;;;19.23;16.73;;;;;;;16.31;100.00;98588.38;4102499;28;20638;-90
2022/10/08 07:22:32;;;;;;;19.20;17.20;;;;;;;16.33;100.00;98589.94;4096664;28;20642;-90
2022/10/08 07:24:35;;;;;;;23.30;18.10;;;;;;;16.35;100.00;98581.91;4120243;28;21192;-90
2022/10/08 07:26:38;;;;;;;20.87;18.23;;;;;;;16.42;100.00;98593.59;4107869;28;21222;-90
2022/10/08 07:28:48;;;;;;;23.30;18.23;;;;;;;16.46;100.00;98595.00;4124340;28;20674;-90
2022/10/08 07:30:52;;;;;;;21.70;17.53;;;;;;;16.52;100.00;98592.69;4094810;28;21187;-90
2022/10/08 07:32:59;;;;;;;21.73;17.13;;;;;;;16.55;100.00;98603.81;4127090;28;21056;-91
2022/10/08 07:35:02;;;;;;;22.40;18.60;;;;;;;16.61;100.00;98605.94;4116428;28;20661;-90
2022/10/08 07:37:05;;;;;;;23.43;19.27;;;;;;;16.69;100.00;98615.84;4086662;28;20688;-90
2022/10/08 07:39:11;;;;;;;29.33;19.10;;;;;;;16.78;100.00;98621.16;4087566;28;20648;-90
2022/10/08 07:41:15;;;;;;;27.10;18.40;;;;;;;16.89;100.00;98618.44;4119755;28;20651;-91
2022/10/08 07:43:17;;;;;;;21.03;17.50;;;;;;;16.94;100.00;98624.16;4104953;28;20720;-88
2022/10/08 07:45:21;;;;;;;22.77;18.47;;;;;;;16.98;100.00;98622.09;4101483;28;20702;-90
2022/10/08 07:47:27;;;;;;;24.50;18.60;;;;;;;17.09;99.97;98622.84;4103413;28;20746;-90
2022/10/08 07:49:30;;;;;;;21.27;17.80;;;;;;;17.26;99.68;98624.88;4126181;28;21013;-90
2022/10/08 07:51:34;;;;;;;21.10;16.27;;;;;;;17.42;98.30;98626.06;4106373;28;20643;-89
2022/10/08 07:53:38;;;;;;;19.37;15.23;;;;;;;17.58;98.12;98621.94;4123218;28;20766;-89
2022/10/08 07:55:41;;;;;;;22.37;14.77;;;;;;;17.68;96.95;98620.19;4109923;28;21354;-91
2022/10/08 07:57:45;;;;;;;17.03;14.90;;;;;;;17.69;96.59;98619.19;4108299;28;21200;-90
2022/10/08 07:59:48;;;;;;;16.67;13.70;;;;;;;17.76;95.91;98622.97;4108401;28;20655;-90
2022/10/08 08:01:51;;;;;;;18.30;13.67;;;;;;;18.03;95.25;98623.97;4091987;28;20646;-91
2022/10/08 08:03:57;;;;;;;16.87;13.97;;;;;;;18.14;94.38;98623.88;4100005;28;20649;-89
2022/10/08 08:06:01;;;;;;;19.60;13.03;;;;;;;18.30;93.40;98618.06;4110535;28;20641;-89
2022/10/08 08:08:04;;;;;;;14.97;12.90;;;;;;;18.50;92.97;98634.56;4104862;28;20703;-90
2022/10/08 08:10:08;;;;;;;19.10;12.97;;;;;;;18.45;91.80;98631.53;4104291;28;21290;-90
2022/10/08 08:12:11;;;;;;;11.97;10.57;;;;;;;18.53;92.33;98634.31;4120780;28;20651;-89
2022/10/08 08:14:14;;;;;;;14.70;11.87;;;;;;;18.62;90.90;98627.34;4089850;28;20645;-89
2022/10/08 08:16:18;;;;;;;13.07;8.10;;;;;;;18.57;89.16;98632.22;4122166;28;20642;-90
2022/10/08 08:18:21;;;;;;;14.70;8.30;;;;;;;18.46;88.99;98630.56;4105077;28;21517;-90
2022/10/08 08:20:26;;;;;;;12.60;9.00;;;;;;;18.38;88.00;98628.75;4121630;28;20801;-90
2022/10/08 08:22:29;;;;;;;9.57;7.57;;;;;;;18.48;87.47;98636.53;4120731;28;20631;-90
2022/10/08 08:24:32;;;;;;;11.03;7.60;;;;;;;18.74;86.13;98631.50;4086819;28;21143;-91
2022/10/08 08:26:37;;;;;;;11.87;7.60;;;;;;;18.91;87.33;98634.25;4091028;28;20646;-88
2022/10/08 08:28:41;;;;;;;14.20;8.10;;;;;;;18.98;84.74;98630.06;4093063;28;20644;-89
2022/10/08 08:30:44;;;;;;;8.97;7.20;;;;;;;18.99;84.33;98637.03;4107618;28;20680;-89
2022/10/08 08:32:47;;;;;;;12.77;8.20;;;;;;;18.96;83.20;98637.31;4109014;28;21458;-89
2022/10/08 08:34:51;;;;;;;11.60;8.67;;;;;;;19.07;85.20;98638.00;4104772;28;21125;-89
2022/10/08 08:36:55;;;;;;;13.23;8.70;;;;;;;19.10;83.68;98635.06;4126414;28;20655;-91
2022/10/08 08:38:59;;;;;;;10.63;8.07;;;;;;;19.19;84.52;98644.78;4097865;28;20641;-89
2022/10/08 08:41:15;;;;;;;10.23;6.73;;;;;;;18.99;81.76;98642.31;4109121;28;21216;-90
2022/10/08 08:43:22;;;;;;;10.50;6.20;;;;;;;18.72;83.45;98631.66;4102006;28;20645;-89
2022/10/08 08:45:29;;;;;;;9.40;6.93;;;;;;;18.55;84.38;98637.66;4100222;28;20942;-89
2022/10/08 08:47:55;;;;;;;8.93;5.43;;;;;;;18.36;83.20;98635.97;4127041;28;21204;-90
2022/10/08 08:50:01;;;;;;;9.10;5.60;;;;;;;18.26;83.69;98640.44;4100506;28;20636;-89
2022/10/08 08:52:06;;;;;;;11.73;6.47;;;;;;;18.17;83.04;98636.81;4118918;28;21195;-90
2022/10/08 08:54:10;;;;;;;12.23;5.43;;;;;;;18.15;82.65;98637.94;4090565;28;20647;-90
2022/10/08 08:56:16;;;;;;;7.73;5.30;;;;;;;18.13;82.99;98646.00;4117683;28;20706;-89
2022/10/08 08:58:26;;;;;;;7.80;4.70;;;;;;;18.08;84.53;98642.06;4106154;28;20641;-89
2022/10/08 09:00:32;;;;;;;8.83;4.87;;;;;;;17.98;82.95;98641.19;4107742;28;20665;-89
2022/10/08 09:02:38;;;;;;;9.17;4.50;;;;;;;17.93;82.30;98651.34;4109481;28;20640;-89
2022/10/08 09:04:44;;;;;;;7.40;4.47;;;;;;;17.91;82.44;98645.38;4106002;28;21278;-88
2022/10/08 09:06:48;;;;;;;5.43;4.20;;;;;;;17.91;82.60;98642.72;4119851;28;21182;-89
2022/10/08 09:08:55;;;;;;;7.50;4.10;;;;;;;17.96;82.57;98645.78;4085252;28;20641;-89
2022/10/08 09:11:00;;;;;;;6.70;4.17;;;;;;;18.17;82.01;98646.53;4101594;28;20634;-89
2022/10/08 09:13:03;;;;;;;11.13;4.87;;;;;;;18.37;81.61;98643.75;4101693;28;20643;-89
2022/10/08 09:15:17;;;;;;;10.20;4.50;;;;;;;18.67;80.02;98646.25;4113556;28;21912;-89
2022/10/08 09:17:21;;;;;;;5.87;4.00;;;;;;;18.94;79.95;98655.09;4114092;28;21555;-89
2022/10/08 09:19:24;;;;;;;8.27;4.30;;;;;;;19.11;77.73;98655.25;4101561;28;20632;-89
2022/10/08 09:21:30;;;;;;;7.77;2.87;;;;;;;19.17;73.28;98656.47;4103958;28;20650;-89
2022/10/08 09:23:33;;;;;;;9.17;3.30;;;;;;;19.11;73.88;98655.25;4105993;28;20683;-89
2022/10/08 09:25:38;;;;;;;10.70;3.50;;;;;;;19.22;75.12;98649.78;4100244;28;20645;-89
2022/10/08 09:27:46;;;;;;;7.67;3.00;;;;;;;19.32;74.67;98650.59;4086085;28;21227;-89
2022/10/08 09:29:49;;;;;;;12.23;3.60;;;;;;;19.53;75.32;98664.41;4108425;28;21034;-89
2022/10/08 09:31:52;;;;;;;9.10;4.00;;;;;;;19.69;73.71;98660.16;4123454;28;21224;-89
2022/10/08 09:33:58;;;;;;;5.60;2.80;;;;;;;19.84;71.58;98669.28;4111236;28;20760;-92
2022/10/08 09:36:01;;;;;;;7.70;3.23;;;;;;;19.92;71.07;98669.41;4109609;28;20711;-91